sensor_id;sensor_type;location;lat;lon;timestamp;temperature;humidity
66522;SHT31;53349;53.538;8.584;2023-02-23T00:01:26;9.62;80.76
66522;SHT31;53349;53.538;8.584;2023-02-23T00:03:55;9.63;80.74
66522;SHT31;53349;53.538;8.584;2023-02-23T00:06:22;9.63;80.77
66522;SHT31;53349;53.538;8.584;2023-02-23T00:08:50;9.59;80.65
66522;SHT31;53349;53.538;8.584;2023-02-23T00:11:17;9.60;80.66
66522;SHT31;53349;53.538;8.584;2023-02-23T00:13:44;9.57;80.54
66522;SHT31;53349;53.538;8.584;2023-02-23T00:16:14;9.57;80.63
66522;SHT31;53349;53.538;8.584;2023-02-23T00:18:50;9.52;80.72
66522;SHT31;53349;53.538;8.584;2023-02-23T00:21:27;9.52;80.71
66522;SHT31;53349;53.538;8.584;2023-02-23T00:23:56;9.53;80.72
66522;SHT31;53349;53.538;8.584;2023-02-23T00:26:33;9.49;80.75
66522;SHT31;53349;53.538;8.584;2023-02-23T00:29:03;9.50;80.77
66522;SHT31;53349;53.538;8.584;2023-02-23T00:31:31;9.50;80.79
66522;SHT31;53349;53.538;8.584;2023-02-23T00:34:01;9.52;80.77
66522;SHT31;53349;53.538;8.584;2023-02-23T00:36:34;9.45;80.60
66522;SHT31;53349;53.538;8.584;2023-02-23T00:39:03;9.43;80.81
66522;SHT31;53349;53.538;8.584;2023-02-23T00:41:29;9.46;80.86
66522;SHT31;53349;53.538;8.584;2023-02-23T00:43:58;9.46;80.80
66522;SHT31;53349;53.538;8.584;2023-02-23T00:46:27;9.43;80.91
66522;SHT31;53349;53.538;8.584;2023-02-23T00:48:58;9.42;80.98
66522;SHT31;53349;53.538;8.584;2023-02-23T00:51:28;9.45;80.94
66522;SHT31;53349;53.538;8.584;2023-02-23T00:53:53;9.46;80.94
66522;SHT31;53349;53.538;8.584;2023-02-23T00:56:19;9.45;80.88
66522;SHT31;53349;53.538;8.584;2023-02-23T00:58:44;9.42;80.91
66522;SHT31;53349;53.538;8.584;2023-02-23T01:01:12;9.42;80.91
66522;SHT31;53349;53.538;8.584;2023-02-23T01:03:38;9.38;80.90
66522;SHT31;53349;53.538;8.584;2023-02-23T01:06:07;9.42;80.96
66522;SHT31;53349;53.538;8.584;2023-02-23T01:08:34;9.39;80.91
66522;SHT31;53349;53.538;8.584;2023-02-23T01:11:09;9.40;80.81
66522;SHT31;53349;53.538;8.584;2023-02-23T01:13:37;9.38;80.73
66522;SHT31;53349;53.538;8.584;2023-02-23T01:16:08;9.35;80.64
66522;SHT31;53349;53.538;8.584;2023-02-23T01:18:34;9.36;80.63
66522;SHT31;53349;53.538;8.584;2023-02-23T01:21:28;9.32;80.50
66522;SHT31;53349;53.538;8.584;2023-02-23T01:24:11;9.29;80.56
66522;SHT31;53349;53.538;8.584;2023-02-23T01:26:42;9.28;80.43
66522;SHT31;53349;53.538;8.584;2023-02-23T01:29:13;9.22;80.40
66522;SHT31;53349;53.538;8.584;2023-02-23T01:31:41;9.25;80.31
66522;SHT31;53349;53.538;8.584;2023-02-23T01:34:10;9.22;80.21
66522;SHT31;53349;53.538;8.584;2023-02-23T01:36:37;9.22;80.30
66522;SHT31;53349;53.538;8.584;2023-02-23T01:39:04;9.19;80.13
66522;SHT31;53349;53.538;8.584;2023-02-23T01:41:30;9.15;80.25
66522;SHT31;53349;53.538;8.584;2023-02-23T01:43:59;9.12;80.29
66522;SHT31;53349;53.538;8.584;2023-02-23T01:46:26;9.14;80.50
66522;SHT31;53349;53.538;8.584;2023-02-23T01:48:52;9.14;80.13
66522;SHT31;53349;53.538;8.584;2023-02-23T01:51:24;9.10;80.25
66522;SHT31;53349;53.538;8.584;2023-02-23T01:53:56;9.11;80.22
66522;SHT31;53349;53.538;8.584;2023-02-23T01:56:31;9.07;80.38
66522;SHT31;53349;53.538;8.584;2023-02-23T01:59:02;9.01;80.31
66522;SHT31;53349;53.538;8.584;2023-02-23T02:01:29;9.03;80.45
66522;SHT31;53349;53.538;8.584;2023-02-23T02:04:03;9.03;80.46
66522;SHT31;53349;53.538;8.584;2023-02-23T02:06:28;9.00;80.47
66522;SHT31;53349;53.538;8.584;2023-02-23T02:08:58;8.95;80.43
66522;SHT31;53349;53.538;8.584;2023-02-23T02:11:25;8.95;80.60
66522;SHT31;53349;53.538;8.584;2023-02-23T02:13:52;8.95;80.68
66522;SHT31;53349;53.538;8.584;2023-02-23T02:16:33;8.98;80.46
66522;SHT31;53349;53.538;8.584;2023-02-23T02:28:08;9.00;80.65
66522;SHT31;53349;53.538;8.584;2023-02-23T02:42:28;9.03;80.75
66522;SHT31;53349;53.538;8.584;2023-02-23T02:48:21;9.03;80.61
66522;SHT31;53349;53.538;8.584;2023-02-23T02:50:54;9.05;80.65
66522;SHT31;53349;53.538;8.584;2023-02-23T02:55:56;8.97;80.52
66522;SHT31;53349;53.538;8.584;2023-02-23T02:58:24;9.01;80.60
66522;SHT31;53349;53.538;8.584;2023-02-23T03:00:50;9.04;80.55
66522;SHT31;53349;53.538;8.584;2023-02-23T03:03:32;9.03;80.60
66522;SHT31;53349;53.538;8.584;2023-02-23T03:06:00;9.00;80.55
66522;SHT31;53349;53.538;8.584;2023-02-23T03:11:01;8.92;80.65
66522;SHT31;53349;53.538;8.584;2023-02-23T03:19:19;9.01;80.72
66522;SHT31;53349;53.538;8.584;2023-02-23T03:24:52;8.97;80.68
66522;SHT31;53349;53.538;8.584;2023-02-23T03:27:35;8.98;80.72
66522;SHT31;53349;53.538;8.584;2023-02-23T03:30:16;9.01;80.72
66522;SHT31;53349;53.538;8.584;2023-02-23T03:32:48;8.98;80.70
66522;SHT31;53349;53.538;8.584;2023-02-23T03:35:35;8.98;80.71
66522;SHT31;53349;53.538;8.584;2023-02-23T03:38:12;8.97;80.69
66522;SHT31;53349;53.538;8.584;2023-02-23T03:40:41;8.98;80.68
66522;SHT31;53349;53.538;8.584;2023-02-23T03:43:12;8.94;80.75
66522;SHT31;53349;53.538;8.584;2023-02-23T03:45:40;8.92;80.91
66522;SHT31;53349;53.538;8.584;2023-02-23T03:48:09;8.92;80.98
66522;SHT31;53349;53.538;8.584;2023-02-23T03:50:40;8.89;80.98
66522;SHT31;53349;53.538;8.584;2023-02-23T03:53:08;8.92;81.11
66522;SHT31;53349;53.538;8.584;2023-02-23T03:55:38;8.91;81.04
66522;SHT31;53349;53.538;8.584;2023-02-23T03:58:08;8.89;81.15
66522;SHT31;53349;53.538;8.584;2023-02-23T04:00:44;8.85;81.36
66522;SHT31;53349;53.538;8.584;2023-02-23T04:03:14;8.85;81.60
66522;SHT31;53349;53.538;8.584;2023-02-23T04:05:41;8.81;81.71
66522;SHT31;53349;53.538;8.584;2023-02-23T04:08:11;8.81;81.81
66522;SHT31;53349;53.538;8.584;2023-02-23T04:10:56;8.77;81.91
66522;SHT31;53349;53.538;8.584;2023-02-23T04:13:26;8.74;82.01
66522;SHT31;53349;53.538;8.584;2023-02-23T04:16:02;8.71;81.99
66522;SHT31;53349;53.538;8.584;2023-02-23T04:18:32;8.68;82.18
66522;SHT31;53349;53.538;8.584;2023-02-23T04:20:59;8.67;82.24
66522;SHT31;53349;53.538;8.584;2023-02-23T04:23:28;8.68;82.24
66522;SHT31;53349;53.538;8.584;2023-02-23T04:25:54;8.67;82.10
66522;SHT31;53349;53.538;8.584;2023-02-23T04:28:23;8.63;82.20
66522;SHT31;53349;53.538;8.584;2023-02-23T04:30:49;8.67;82.22
66522;SHT31;53349;53.538;8.584;2023-02-23T04:33:16;8.68;82.22
66522;SHT31;53349;53.538;8.584;2023-02-23T04:35:42;8.68;82.04
66522;SHT31;53349;53.538;8.584;2023-02-23T04:38:09;8.71;81.95
66522;SHT31;53349;53.538;8.584;2023-02-23T04:40:34;8.70;81.82
66522;SHT31;53349;53.538;8.584;2023-02-23T04:43:00;8.68;81.59
66522;SHT31;53349;53.538;8.584;2023-02-23T04:45:26;8.68;81.53
66522;SHT31;53349;53.538;8.584;2023-02-23T04:47:53;8.70;81.32
66522;SHT31;53349;53.538;8.584;2023-02-23T04:50:20;8.70;81.20
66522;SHT31;53349;53.538;8.584;2023-02-23T04:52:47;8.65;81.11
66522;SHT31;53349;53.538;8.584;2023-02-23T04:55:20;8.63;80.99
66522;SHT31;53349;53.538;8.584;2023-02-23T04:57:50;8.63;81.02
66522;SHT31;53349;53.538;8.584;2023-02-23T05:00:16;8.61;80.99
66522;SHT31;53349;53.538;8.584;2023-02-23T05:02:44;8.63;80.91
66522;SHT31;53349;53.538;8.584;2023-02-23T05:05:10;8.64;80.89
66522;SHT31;53349;53.538;8.584;2023-02-23T05:07:37;8.67;80.73
66522;SHT31;53349;53.538;8.584;2023-02-23T05:10:07;8.65;80.65
66522;SHT31;53349;53.538;8.584;2023-02-23T05:12:33;8.63;80.58
66522;SHT31;53349;53.538;8.584;2023-02-23T05:14:58;8.61;80.47
66522;SHT31;53349;53.538;8.584;2023-02-23T05:17:24;8.59;80.60
66522;SHT31;53349;53.538;8.584;2023-02-23T05:19:50;8.59;80.50
66522;SHT31;53349;53.538;8.584;2023-02-23T05:22:16;8.57;80.57
66522;SHT31;53349;53.538;8.584;2023-02-23T05:24:41;8.59;80.59
66522;SHT31;53349;53.538;8.584;2023-02-23T05:27:10;8.59;80.60
66522;SHT31;53349;53.538;8.584;2023-02-23T05:29:38;8.57;80.61
66522;SHT31;53349;53.538;8.584;2023-02-23T05:32:04;8.59;80.58
66522;SHT31;53349;53.538;8.584;2023-02-23T05:34:38;8.59;80.57
66522;SHT31;53349;53.538;8.584;2023-02-23T05:37:04;8.60;80.64
66522;SHT31;53349;53.538;8.584;2023-02-23T05:39:30;8.59;80.58
66522;SHT31;53349;53.538;8.584;2023-02-23T05:41:56;8.60;80.66
66522;SHT31;53349;53.538;8.584;2023-02-23T05:44:25;8.60;80.65
66522;SHT31;53349;53.538;8.584;2023-02-23T05:46:51;8.59;80.75
66522;SHT31;53349;53.538;8.584;2023-02-23T05:49:17;8.57;80.81
66522;SHT31;53349;53.538;8.584;2023-02-23T05:51:42;8.57;80.83
66522;SHT31;53349;53.538;8.584;2023-02-23T05:54:08;8.59;80.91
66522;SHT31;53349;53.538;8.584;2023-02-23T05:56:37;8.54;81.00
66522;SHT31;53349;53.538;8.584;2023-02-23T05:59:02;8.59;81.01
66522;SHT31;53349;53.538;8.584;2023-02-23T06:01:31;8.60;81.00
66522;SHT31;53349;53.538;8.584;2023-02-23T06:03:59;8.60;81.05
66522;SHT31;53349;53.538;8.584;2023-02-23T06:06:27;8.54;81.20
66522;SHT31;53349;53.538;8.584;2023-02-23T06:08:54;8.53;81.27
66522;SHT31;53349;53.538;8.584;2023-02-23T06:11:20;8.54;81.30
66522;SHT31;53349;53.538;8.584;2023-02-23T06:13:51;8.54;81.40
66522;SHT31;53349;53.538;8.584;2023-02-23T06:16:19;8.52;81.33
66522;SHT31;53349;53.538;8.584;2023-02-23T06:18:48;8.49;81.33
66522;SHT31;53349;53.538;8.584;2023-02-23T06:21:14;8.47;81.28
66522;SHT31;53349;53.538;8.584;2023-02-23T06:23:40;8.46;81.07
66522;SHT31;53349;53.538;8.584;2023-02-23T06:26:06;8.44;80.88
66522;SHT31;53349;53.538;8.584;2023-02-23T06:28:31;8.46;80.97
66522;SHT31;53349;53.538;8.584;2023-02-23T06:30:57;8.46;80.88
66522;SHT31;53349;53.538;8.584;2023-02-23T06:33:22;8.44;80.63
66522;SHT31;53349;53.538;8.584;2023-02-23T06:35:48;8.44;80.62
66522;SHT31;53349;53.538;8.584;2023-02-23T06:38:13;8.43;80.56
66522;SHT31;53349;53.538;8.584;2023-02-23T06:40:39;8.42;80.37
66522;SHT31;53349;53.538;8.584;2023-02-23T06:43:04;8.43;80.41
66522;SHT31;53349;53.538;8.584;2023-02-23T06:45:31;8.42;80.29
66522;SHT31;53349;53.538;8.584;2023-02-23T06:47:59;8.42;80.21
66522;SHT31;53349;53.538;8.584;2023-02-23T06:50:25;8.44;80.15
66522;SHT31;53349;53.538;8.584;2023-02-23T06:52:50;8.43;80.13
66522;SHT31;53349;53.538;8.584;2023-02-23T06:55:16;8.44;80.01
66522;SHT31;53349;53.538;8.584;2023-02-23T06:57:42;8.43;79.96
66522;SHT31;53349;53.538;8.584;2023-02-23T07:00:09;8.43;79.93
66522;SHT31;53349;53.538;8.584;2023-02-23T07:02:35;8.44;79.90
66522;SHT31;53349;53.538;8.584;2023-02-23T07:05:00;8.44;79.87
66522;SHT31;53349;53.538;8.584;2023-02-23T07:07:25;8.42;79.91
66522;SHT31;53349;53.538;8.584;2023-02-23T07:09:50;8.43;80.01
66522;SHT31;53349;53.538;8.584;2023-02-23T07:12:16;8.44;80.03
66522;SHT31;53349;53.538;8.584;2023-02-23T07:14:42;8.43;79.94
66522;SHT31;53349;53.538;8.584;2023-02-23T07:17:09;8.40;79.97
66522;SHT31;53349;53.538;8.584;2023-02-23T07:19:34;8.43;80.25
66522;SHT31;53349;53.538;8.584;2023-02-23T07:22:00;8.49;80.29
66522;SHT31;53349;53.538;8.584;2023-02-23T07:24:26;8.49;80.12
66522;SHT31;53349;53.538;8.584;2023-02-23T07:26:51;8.50;80.11
66522;SHT31;53349;53.538;8.584;2023-02-23T07:29:18;8.54;80.20
66522;SHT31;53349;53.538;8.584;2023-02-23T07:31:44;8.54;79.96
66522;SHT31;53349;53.538;8.584;2023-02-23T07:34:10;8.56;80.02
66522;SHT31;53349;53.538;8.584;2023-02-23T07:36:36;8.59;80.04
66522;SHT31;53349;53.538;8.584;2023-02-23T07:39:08;8.60;79.98
66522;SHT31;53349;53.538;8.584;2023-02-23T07:41:46;8.63;79.91
66522;SHT31;53349;53.538;8.584;2023-02-23T07:44:13;8.63;79.85
66522;SHT31;53349;53.538;8.584;2023-02-23T07:46:42;8.64;79.90
66522;SHT31;53349;53.538;8.584;2023-02-23T07:49:07;8.63;80.00
66522;SHT31;53349;53.538;8.584;2023-02-23T07:51:33;8.60;80.10
66522;SHT31;53349;53.538;8.584;2023-02-23T07:54:04;8.60;80.15
66522;SHT31;53349;53.538;8.584;2023-02-23T07:56:29;8.64;80.29
66522;SHT31;53349;53.538;8.584;2023-02-23T07:58:55;8.61;79.99
66522;SHT31;53349;53.538;8.584;2023-02-23T08:01:21;8.63;80.13
66522;SHT31;53349;53.538;8.584;2023-02-23T08:03:46;8.64;80.10
66522;SHT31;53349;53.538;8.584;2023-02-23T08:06:11;8.67;80.02
66522;SHT31;53349;53.538;8.584;2023-02-23T08:08:39;8.67;79.74
66522;SHT31;53349;53.538;8.584;2023-02-23T08:11:06;8.67;79.71
66522;SHT31;53349;53.538;8.584;2023-02-23T08:13:31;8.67;79.69
66522;SHT31;53349;53.538;8.584;2023-02-23T08:15:57;8.65;79.68
66522;SHT31;53349;53.538;8.584;2023-02-23T08:18:23;8.67;79.63
66522;SHT31;53349;53.538;8.584;2023-02-23T08:20:49;8.65;79.55
66522;SHT31;53349;53.538;8.584;2023-02-23T08:23:14;8.67;79.49
66522;SHT31;53349;53.538;8.584;2023-02-23T08:25:39;8.64;79.47
66522;SHT31;53349;53.538;8.584;2023-02-23T08:28:05;8.61;79.56
66522;SHT31;53349;53.538;8.584;2023-02-23T08:30:32;8.65;79.65
66522;SHT31;53349;53.538;8.584;2023-02-23T08:32:59;8.63;79.68
66522;SHT31;53349;53.538;8.584;2023-02-23T08:35:24;8.63;79.80
66522;SHT31;53349;53.538;8.584;2023-02-23T08:37:50;8.64;79.75
66522;SHT31;53349;53.538;8.584;2023-02-23T08:40:15;8.64;79.78
66522;SHT31;53349;53.538;8.584;2023-02-23T08:42:50;8.65;80.16
66522;SHT31;53349;53.538;8.584;2023-02-23T08:45:16;8.67;80.56
66522;SHT31;53349;53.538;8.584;2023-02-23T08:47:42;8.68;80.56
66522;SHT31;53349;53.538;8.584;2023-02-23T08:50:08;8.73;81.00
66522;SHT31;53349;53.538;8.584;2023-02-23T08:52:38;8.75;81.09
66522;SHT31;53349;53.538;8.584;2023-02-23T08:55:06;8.77;81.17
66522;SHT31;53349;53.538;8.584;2023-02-23T08:57:33;8.80;81.91
66522;SHT31;53349;53.538;8.584;2023-02-23T09:00:02;8.85;81.93
66522;SHT31;53349;53.538;8.584;2023-02-23T09:02:31;8.92;82.07
66522;SHT31;53349;53.538;8.584;2023-02-23T09:04:58;8.98;81.66
66522;SHT31;53349;53.538;8.584;2023-02-23T09:07:24;8.98;81.36
66522;SHT31;53349;53.538;8.584;2023-02-23T09:09:58;9.01;81.03
66522;SHT31;53349;53.538;8.584;2023-02-23T09:12:24;9.04;80.90
66522;SHT31;53349;53.538;8.584;2023-02-23T09:14:49;9.07;80.70
66522;SHT31;53349;53.538;8.584;2023-02-23T09:17:16;9.07;80.48
66522;SHT31;53349;53.538;8.584;2023-02-23T09:19:42;9.08;80.43
66522;SHT31;53349;53.538;8.584;2023-02-23T09:22:09;9.12;80.37
66522;SHT31;53349;53.538;8.584;2023-02-23T09:24:35;9.11;80.11
66522;SHT31;53349;53.538;8.584;2023-02-23T09:27:01;9.03;79.68
66522;SHT31;53349;53.538;8.584;2023-02-23T09:29:26;9.07;79.94
66522;SHT31;53349;53.538;8.584;2023-02-23T09:31:53;9.05;79.77
66522;SHT31;53349;53.538;8.584;2023-02-23T09:34:22;9.00;79.80
66522;SHT31;53349;53.538;8.584;2023-02-23T09:36:49;9.03;79.89
66522;SHT31;53349;53.538;8.584;2023-02-23T09:39:15;9.03;79.57
66522;SHT31;53349;53.538;8.584;2023-02-23T09:42:06;9.03;79.69
66522;SHT31;53349;53.538;8.584;2023-02-23T09:45:28;9.01;79.56
66522;SHT31;53349;53.538;8.584;2023-02-23T09:50:30;8.98;79.42
66522;SHT31;53349;53.538;8.584;2023-02-23T09:53:24;8.94;79.39
66522;SHT31;53349;53.538;8.584;2023-02-23T09:55:54;8.94;79.22
66522;SHT31;53349;53.538;8.584;2023-02-23T09:58:24;8.95;79.12
66522;SHT31;53349;53.538;8.584;2023-02-23T10:04:04;8.87;78.66
66522;SHT31;53349;53.538;8.584;2023-02-23T10:06:32;8.87;78.47
66522;SHT31;53349;53.538;8.584;2023-02-23T10:14:54;8.92;78.33
66522;SHT31;53349;53.538;8.584;2023-02-23T10:17:31;8.89;78.05
66522;SHT31;53349;53.538;8.584;2023-02-23T10:23:17;8.84;77.02
66522;SHT31;53349;53.538;8.584;2023-02-23T10:25:48;8.80;76.73
66522;SHT31;53349;53.538;8.584;2023-02-23T10:28:18;8.84;76.66
66522;SHT31;53349;53.538;8.584;2023-02-23T10:30:44;8.89;76.50
66522;SHT31;53349;53.538;8.584;2023-02-23T10:35:41;9.00;76.07
66522;SHT31;53349;53.538;8.584;2023-02-23T10:38:14;9.01;75.64
66522;SHT31;53349;53.538;8.584;2023-02-23T10:40:40;9.01;75.57
66522;SHT31;53349;53.538;8.584;2023-02-23T10:43:13;9.03;75.59
66522;SHT31;53349;53.538;8.584;2023-02-23T10:45:47;9.05;75.38
66522;SHT31;53349;53.538;8.584;2023-02-23T10:48:27;9.10;74.93
66522;SHT31;53349;53.538;8.584;2023-02-23T10:50:55;9.16;75.21
66522;SHT31;53349;53.538;8.584;2023-02-23T10:53:24;9.24;75.04
66522;SHT31;53349;53.538;8.584;2023-02-23T10:56:25;9.29;74.51
66522;SHT31;53349;53.538;8.584;2023-02-23T10:58:57;9.31;74.21
66522;SHT31;53349;53.538;8.584;2023-02-23T11:01:37;9.39;74.35
66522;SHT31;53349;53.538;8.584;2023-02-23T11:04:23;9.46;73.88
66522;SHT31;53349;53.538;8.584;2023-02-23T11:07:05;9.49;73.46
66522;SHT31;53349;53.538;8.584;2023-02-23T11:09:32;9.56;72.87
66522;SHT31;53349;53.538;8.584;2023-02-23T11:12:00;9.59;72.49
66522;SHT31;53349;53.538;8.584;2023-02-23T11:14:28;9.62;72.46
66522;SHT31;53349;53.538;8.584;2023-02-23T11:16:58;9.66;72.13
66522;SHT31;53349;53.538;8.584;2023-02-23T11:19:32;9.69;71.60
66522;SHT31;53349;53.538;8.584;2023-02-23T11:22:03;9.73;71.51
66522;SHT31;53349;53.538;8.584;2023-02-23T11:24:36;9.73;71.71
66522;SHT31;53349;53.538;8.584;2023-02-23T11:27:05;9.79;71.64
66522;SHT31;53349;53.538;8.584;2023-02-23T11:29:50;9.86;71.19
66522;SHT31;53349;53.538;8.584;2023-02-23T11:32:21;9.79;71.17
66522;SHT31;53349;53.538;8.584;2023-02-23T11:35:16;9.83;71.09
66522;SHT31;53349;53.538;8.584;2023-02-23T11:37:53;9.80;70.69
66522;SHT31;53349;53.538;8.584;2023-02-23T11:40:24;9.77;70.72
66522;SHT31;53349;53.538;8.584;2023-02-23T11:43:35;9.70;70.59
66522;SHT31;53349;53.538;8.584;2023-02-23T11:45:49;9.70;71.43
66522;SHT31;53349;53.538;8.584;2023-02-23T11:48:37;9.70;71.92
66522;SHT31;53349;53.538;8.584;2023-02-23T11:51:07;9.65;72.34
66522;SHT31;53349;53.538;8.584;2023-02-23T11:53:43;9.62;72.90
66522;SHT31;53349;53.538;8.584;2023-02-23T11:56:19;9.57;73.54
66522;SHT31;53349;53.538;8.584;2023-02-23T11:58:46;9.65;73.84
66522;SHT31;53349;53.538;8.584;2023-02-23T12:01:15;9.69;74.27
66522;SHT31;53349;53.538;8.584;2023-02-23T12:03:49;9.70;74.49
66522;SHT31;53349;53.538;8.584;2023-02-23T12:06:38;9.67;74.82
66522;SHT31;53349;53.538;8.584;2023-02-23T12:09:28;9.56;75.33
66522;SHT31;53349;53.538;8.584;2023-02-23T12:12:08;9.50;75.60
66522;SHT31;53349;53.538;8.584;2023-02-23T12:14:39;9.53;75.71
66522;SHT31;53349;53.538;8.584;2023-02-23T12:20:37;9.56;75.88
66522;SHT31;53349;53.538;8.584;2023-02-23T12:23:17;9.63;75.86
66522;SHT31;53349;53.538;8.584;2023-02-23T12:25:56;9.60;75.93
66522;SHT31;53349;53.538;8.584;2023-02-23T12:28:36;9.65;76.07
66522;SHT31;53349;53.538;8.584;2023-02-23T12:31:33;9.60;76.24
66522;SHT31;53349;53.538;8.584;2023-02-23T12:34:11;9.69;76.10
66522;SHT31;53349;53.538;8.584;2023-02-23T12:36:45;9.72;75.95
66522;SHT31;53349;53.538;8.584;2023-02-23T12:39:29;9.57;75.98
66522;SHT31;53349;53.538;8.584;2023-02-23T12:42:08;9.62;76.21
66522;SHT31;53349;53.538;8.584;2023-02-23T12:44:53;9.62;76.30
66522;SHT31;53349;53.538;8.584;2023-02-23T12:47:26;9.69;76.37
66522;SHT31;53349;53.538;8.584;2023-02-23T12:49:58;9.66;76.07
66522;SHT31;53349;53.538;8.584;2023-02-23T12:52:30;9.59;76.02
66522;SHT31;53349;53.538;8.584;2023-02-23T12:54:57;9.55;75.99
66522;SHT31;53349;53.538;8.584;2023-02-23T13:00:16;9.59;76.19
66522;SHT31;53349;53.538;8.584;2023-02-23T13:02:58;9.59;76.09
66522;SHT31;53349;53.538;8.584;2023-02-23T13:05:31;9.52;76.20
66522;SHT31;53349;53.538;8.584;2023-02-23T13:08:21;9.53;76.31
66522;SHT31;53349;53.538;8.584;2023-02-23T13:16:27;9.53;76.39
66522;SHT31;53349;53.538;8.584;2023-02-23T13:22:07;9.40;76.47
66522;SHT31;53349;53.538;8.584;2023-02-23T13:24:38;9.40;76.53
66522;SHT31;53349;53.538;8.584;2023-02-23T13:27:32;9.39;76.49
66522;SHT31;53349;53.538;8.584;2023-02-23T13:30:12;9.36;76.72
66522;SHT31;53349;53.538;8.584;2023-02-23T13:32:37;9.36;76.69
66522;SHT31;53349;53.538;8.584;2023-02-23T13:35:06;9.29;76.50
66522;SHT31;53349;53.538;8.584;2023-02-23T13:37:42;9.22;77.00
66522;SHT31;53349;53.538;8.584;2023-02-23T13:40:51;9.34;76.82
66522;SHT31;53349;53.538;8.584;2023-02-23T13:43:37;9.31;76.47
66522;SHT31;53349;53.538;8.584;2023-02-23T13:46:27;9.32;76.66
66522;SHT31;53349;53.538;8.584;2023-02-23T13:48:58;9.29;76.64
66522;SHT31;53349;53.538;8.584;2023-02-23T13:51:41;9.21;76.51
66522;SHT31;53349;53.538;8.584;2023-02-23T13:56:49;9.15;76.83
66522;SHT31;53349;53.538;8.584;2023-02-23T13:59:40;9.12;76.83
66522;SHT31;53349;53.538;8.584;2023-02-23T14:02:35;9.12;76.87
66522;SHT31;53349;53.538;8.584;2023-02-23T14:07:31;9.01;77.01
66522;SHT31;53349;53.538;8.584;2023-02-23T14:10:05;9.00;77.13
66522;SHT31;53349;53.538;8.584;2023-02-23T14:12:39;9.00;77.25
66522;SHT31;53349;53.538;8.584;2023-02-23T14:18:48;8.88;77.42
66522;SHT31;53349;53.538;8.584;2023-02-23T14:21:02;8.88;77.59
66522;SHT31;53349;53.538;8.584;2023-02-23T14:23:32;8.74;77.79
66522;SHT31;53349;53.538;8.584;2023-02-23T14:26:10;8.71;78.54
66522;SHT31;53349;53.538;8.584;2023-02-23T14:28:38;8.71;79.15
66522;SHT31;53349;53.538;8.584;2023-02-23T14:36:44;8.50;80.51
66522;SHT31;53349;53.538;8.584;2023-02-23T14:39:24;8.42;80.39
66522;SHT31;53349;53.538;8.584;2023-02-23T14:41:55;8.42;80.55
66522;SHT31;53349;53.538;8.584;2023-02-23T14:44:37;8.28;80.30
66522;SHT31;53349;53.538;8.584;2023-02-23T14:47:12;8.15;79.52
66522;SHT31;53349;53.538;8.584;2023-02-23T14:49:44;8.10;79.06
66522;SHT31;53349;53.538;8.584;2023-02-23T14:52:34;8.07;78.74
66522;SHT31;53349;53.538;8.584;2023-02-23T14:55:30;8.12;77.76
66522;SHT31;53349;53.538;8.584;2023-02-23T14:57:56;8.07;76.68
66522;SHT31;53349;53.538;8.584;2023-02-23T15:00:30;8.06;75.46
66522;SHT31;53349;53.538;8.584;2023-02-23T15:05:26;8.07;74.05
66522;SHT31;53349;53.538;8.584;2023-02-23T15:07:56;8.09;72.94
66522;SHT31;53349;53.538;8.584;2023-02-23T15:10:29;8.09;72.76
66522;SHT31;53349;53.538;8.584;2023-02-23T15:12:57;8.07;71.62
66522;SHT31;53349;53.538;8.584;2023-02-23T15:15:25;8.05;70.57
66522;SHT31;53349;53.538;8.584;2023-02-23T15:17:57;8.06;70.68
66522;SHT31;53349;53.538;8.584;2023-02-23T15:20:29;8.06;70.59
66522;SHT31;53349;53.538;8.584;2023-02-23T15:22:56;8.07;70.23
66522;SHT31;53349;53.538;8.584;2023-02-23T15:25:36;8.10;70.57
66522;SHT31;53349;53.538;8.584;2023-02-23T15:28:23;8.06;70.02
66522;SHT31;53349;53.538;8.584;2023-02-23T15:30:50;8.02;69.95
66522;SHT31;53349;53.538;8.584;2023-02-23T15:33:17;7.99;69.49
66522;SHT31;53349;53.538;8.584;2023-02-23T15:38:31;7.91;69.20
66522;SHT31;53349;53.538;8.584;2023-02-23T15:40:59;7.88;69.07
66522;SHT31;53349;53.538;8.584;2023-02-23T15:43:28;7.86;69.26
66522;SHT31;53349;53.538;8.584;2023-02-23T15:45:53;7.91;69.15
66522;SHT31;53349;53.538;8.584;2023-02-23T15:48:22;7.94;68.88
66522;SHT31;53349;53.538;8.584;2023-02-23T15:50:53;7.94;69.40
66522;SHT31;53349;53.538;8.584;2023-02-23T15:53:38;7.92;69.65
66522;SHT31;53349;53.538;8.584;2023-02-23T15:56:19;7.89;69.67
66522;SHT31;53349;53.538;8.584;2023-02-23T15:58:48;7.88;69.67
66522;SHT31;53349;53.538;8.584;2023-02-23T16:01:29;7.84;69.96
66522;SHT31;53349;53.538;8.584;2023-02-23T16:04:15;7.84;69.75
66522;SHT31;53349;53.538;8.584;2023-02-23T16:07:26;7.81;69.09
66522;SHT31;53349;53.538;8.584;2023-02-23T16:10:22;7.79;66.94
66522;SHT31;53349;53.538;8.584;2023-02-23T16:12:52;7.75;66.70
66522;SHT31;53349;53.538;8.584;2023-02-23T16:18:05;7.84;67.21
66522;SHT31;53349;53.538;8.584;2023-02-23T16:20:44;7.82;66.46
66522;SHT31;53349;53.538;8.584;2023-02-23T16:23:23;7.78;66.20
66522;SHT31;53349;53.538;8.584;2023-02-23T16:25:53;7.82;66.13
66522;SHT31;53349;53.538;8.584;2023-02-23T16:28:21;7.72;65.82
66522;SHT31;53349;53.538;8.584;2023-02-23T16:31:03;7.68;66.15
66522;SHT31;53349;53.538;8.584;2023-02-23T16:38:53;7.88;68.50
66522;SHT31;53349;53.538;8.584;2023-02-23T16:41:20;7.98;67.51
66522;SHT31;53349;53.538;8.584;2023-02-23T16:43:53;7.91;66.76
66522;SHT31;53349;53.538;8.584;2023-02-23T16:46:22;7.94;66.69
66522;SHT31;53349;53.538;8.584;2023-02-23T16:48:51;7.88;66.10
66522;SHT31;53349;53.538;8.584;2023-02-23T16:51:19;7.81;65.93
66522;SHT31;53349;53.538;8.584;2023-02-23T16:53:45;7.72;66.02
66522;SHT31;53349;53.538;8.584;2023-02-23T16:56:12;7.71;66.44
66522;SHT31;53349;53.538;8.584;2023-02-23T16:58:46;7.70;66.54
66522;SHT31;53349;53.538;8.584;2023-02-23T17:01:12;7.70;66.63
66522;SHT31;53349;53.538;8.584;2023-02-23T17:03:39;7.67;67.02
66522;SHT31;53349;53.538;8.584;2023-02-23T17:06:06;7.65;66.93
66522;SHT31;53349;53.538;8.584;2023-02-23T17:08:33;7.63;66.76
66522;SHT31;53349;53.538;8.584;2023-02-23T17:11:00;7.60;66.69
66522;SHT31;53349;53.538;8.584;2023-02-23T17:13:26;7.53;66.41
66522;SHT31;53349;53.538;8.584;2023-02-23T17:15:55;7.48;66.45
66522;SHT31;53349;53.538;8.584;2023-02-23T17:18:26;7.44;66.00
66522;SHT31;53349;53.538;8.584;2023-02-23T17:20:55;7.43;66.01
66522;SHT31;53349;53.538;8.584;2023-02-23T17:23:26;7.38;65.87
66522;SHT31;53349;53.538;8.584;2023-02-23T17:25:53;7.37;65.53
66522;SHT31;53349;53.538;8.584;2023-02-23T17:28:20;7.34;65.65
66522;SHT31;53349;53.538;8.584;2023-02-23T17:30:45;7.27;65.48
66522;SHT31;53349;53.538;8.584;2023-02-23T17:33:11;7.30;65.60
66522;SHT31;53349;53.538;8.584;2023-02-23T17:35:37;7.24;65.57
66522;SHT31;53349;53.538;8.584;2023-02-23T17:38:05;7.30;66.57
66522;SHT31;53349;53.538;8.584;2023-02-23T17:40:32;7.37;66.90
66522;SHT31;53349;53.538;8.584;2023-02-23T17:43:00;7.38;66.14
66522;SHT31;53349;53.538;8.584;2023-02-23T17:45:27;7.44;66.28
66522;SHT31;53349;53.538;8.584;2023-02-23T17:47:56;7.38;65.32